createdAt,value
2023-06-01T00:02:24.185Z,1.50
2023-06-01T00:04:51.308Z,1.50
2023-06-01T00:07:18.162Z,1.53
2023-06-01T00:09:44.670Z,1.73
2023-06-01T00:12:11.920Z,2.23
2023-06-01T00:14:38.804Z,2.23
2023-06-01T00:17:06.796Z,1.43
2023-06-01T00:19:33.881Z,1.30
2023-06-01T00:22:01.025Z,1.60
2023-06-01T00:24:27.650Z,1.87
2023-06-01T00:26:54.353Z,1.40
2023-06-01T00:29:21.921Z,1.47
2023-06-01T00:31:48.591Z,1.70
2023-06-01T00:34:15.581Z,1.70
2023-06-01T00:36:42.197Z,1.63
2023-06-01T00:39:11.686Z,1.70
2023-06-01T00:41:38.472Z,1.63
2023-06-01T00:44:05.725Z,1.80
2023-06-01T00:46:33.072Z,1.80
2023-06-01T00:49:00.221Z,1.77
2023-06-01T00:51:27.714Z,1.93
2023-06-01T00:53:54.533Z,1.83
2023-06-01T00:56:22.470Z,1.57
2023-06-01T00:58:49.623Z,1.80
2023-06-01T01:01:24.194Z,1.90
2023-06-01T01:03:58.645Z,1.83
2023-06-01T01:06:57.415Z,1.50
2023-06-01T01:09:33.253Z,1.60
2023-06-01T01:12:13.742Z,1.23
2023-06-01T01:14:48.456Z,1.60
2023-06-01T01:17:35.568Z,1.40
2023-06-01T01:20:16.567Z,1.40
2023-06-01T01:23:07.819Z,1.17
2023-06-01T01:25:53.002Z,1.60
2023-06-01T01:28:49.859Z,1.77
2023-06-01T01:31:24.524Z,1.70
2023-06-01T01:33:53.913Z,1.40
2023-06-01T01:36:21.426Z,1.83
2023-06-01T01:38:48.286Z,1.33
2023-06-01T01:41:15.279Z,1.40
2023-06-01T01:43:43.722Z,1.47
2023-06-01T01:46:28.847Z,2.03
2023-06-01T01:49:18.589Z,1.40
2023-06-01T01:51:58.767Z,1.67
2023-06-01T01:54:26.643Z,1.63
2023-06-01T01:56:59.113Z,1.30
2023-06-01T01:59:27.970Z,1.20
2023-06-01T02:01:54.870Z,1.60
2023-06-01T02:04:21.493Z,1.40
2023-06-01T02:06:48.122Z,1.43
2023-06-01T02:09:15.130Z,2.00
2023-06-01T02:11:41.678Z,1.37
2023-06-01T02:14:08.235Z,1.50
2023-06-01T02:16:35.025Z,1.50
2023-06-01T02:19:03.917Z,1.70
2023-06-01T02:21:30.644Z,1.70
2023-06-01T02:23:57.465Z,1.93
2023-06-01T02:26:24.057Z,1.87
2023-06-01T02:28:50.975Z,1.73
2023-06-01T02:31:17.498Z,1.50
2023-06-01T02:33:44.042Z,1.60
2023-06-01T02:36:11.582Z,1.77
2023-06-01T02:38:38.126Z,1.83
2023-06-01T02:41:05.128Z,1.13
2023-06-01T02:43:35.500Z,1.43
2023-06-01T02:46:02.810Z,1.93
2023-06-01T02:48:29.734Z,1.70
2023-06-01T02:50:56.553Z,1.63
2023-06-01T02:53:23.807Z,1.77
2023-06-01T02:55:50.542Z,2.00
2023-06-01T02:58:17.632Z,1.63
2023-06-01T03:00:44.714Z,2.03
2023-06-01T03:03:11.591Z,2.07
2023-06-01T03:05:38.207Z,2.20
2023-06-01T03:08:07.436Z,1.90
2023-06-01T03:10:34.072Z,1.87
2023-06-01T03:13:02.295Z,1.87
2023-06-01T03:15:28.822Z,2.20
2023-06-01T03:17:55.465Z,2.27
2023-06-01T03:20:22.509Z,2.10
2023-06-01T03:22:49.331Z,2.37
2023-06-01T03:25:17.779Z,2.20
2023-06-01T03:27:46.063Z,2.67
2023-06-01T03:30:13.152Z,2.27
2023-06-01T03:32:42.533Z,1.97
2023-06-01T03:35:10.892Z,2.50
2023-06-01T03:37:39.389Z,2.03
2023-06-01T03:40:12.750Z,2.03
2023-06-01T03:42:41.533Z,2.27
2023-06-01T03:45:09.777Z,2.20
2023-06-01T03:47:36.839Z,2.20
2023-06-01T03:50:05.138Z,1.73
2023-06-01T03:52:31.663Z,2.37
2023-06-01T03:55:02.419Z,2.33
2023-06-01T03:57:29.603Z,1.90
2023-06-01T03:59:56.177Z,2.23
2023-06-01T04:02:24.200Z,1.60
2023-06-01T04:04:51.055Z,2.07
2023-06-01T04:07:20.740Z,2.07
2023-06-01T04:09:47.565Z,1.93
2023-06-01T04:12:15.122Z,2.53
2023-06-01T04:14:42.061Z,2.47
2023-06-01T04:17:09.004Z,2.17
2023-06-01T04:19:35.751Z,2.30
2023-06-01T04:22:02.538Z,1.80
2023-06-01T04:24:30.995Z,1.83
2023-06-01T04:26:57.789Z,2.33
2023-06-01T04:29:26.037Z,2.17
2023-06-01T04:31:52.646Z,2.27
2023-06-01T04:34:19.480Z,1.73
2023-06-01T04:36:47.490Z,2.50
2023-06-01T04:39:14.282Z,2.00
2023-06-01T04:41:40.941Z,2.17
2023-06-01T04:44:08.311Z,1.63
2023-06-01T04:46:36.373Z,2.43
2023-06-01T04:49:03.827Z,2.30
2023-06-01T04:51:32.718Z,1.90
2023-06-01T04:54:00.150Z,2.50
2023-06-01T04:56:28.090Z,2.00
2023-06-01T04:58:56.812Z,2.63
2023-06-01T05:01:27.128Z,2.07
2023-06-01T05:03:56.072Z,2.10
2023-06-01T05:06:23.753Z,2.40
2023-06-01T05:08:50.614Z,2.23
2023-06-01T05:11:17.460Z,1.90
2023-06-01T05:13:45.454Z,1.80
2023-06-01T05:16:12.129Z,1.80
2023-06-01T05:18:40.741Z,1.20
2023-06-01T05:21:07.234Z,1.60
2023-06-01T05:23:34.045Z,1.73
2023-06-01T05:26:03.642Z,1.30
2023-06-01T05:28:33.275Z,1.67
2023-06-01T05:31:01.846Z,1.80
2023-06-01T05:33:29.111Z,1.33
2023-06-01T05:35:55.756Z,1.03
2023-06-01T05:38:22.385Z,1.77
2023-06-01T05:40:48.929Z,1.00
2023-06-01T05:43:16.589Z,1.57
2023-06-01T05:45:44.668Z,1.10
2023-06-01T05:48:14.895Z,1.33
2023-06-01T05:50:42.625Z,1.50
2023-06-01T05:53:10.791Z,1.50
2023-06-01T05:55:37.533Z,1.33
2023-06-01T05:58:04.354Z,1.77
2023-06-01T06:00:31.304Z,1.50
2023-06-01T06:02:58.160Z,1.90
2023-06-01T06:05:24.740Z,1.90
2023-06-01T06:07:51.696Z,1.33
2023-06-01T06:10:18.476Z,1.37
2023-06-01T06:12:45.264Z,1.30
2023-06-01T06:15:11.805Z,1.67
2023-06-01T06:17:38.328Z,1.57
2023-06-01T06:20:08.595Z,1.60
2023-06-01T06:22:35.464Z,1.97
2023-06-01T06:25:02.381Z,1.33
2023-06-01T06:27:28.977Z,1.53
2023-06-01T06:29:55.527Z,1.40
2023-06-01T06:32:22.931Z,1.40
2023-06-01T06:34:49.554Z,1.60
2023-06-01T06:37:16.355Z,1.10
2023-06-01T06:39:43.125Z,1.17
2023-06-01T06:42:09.943Z,1.70
2023-06-01T06:44:36.700Z,1.93
2023-06-01T06:47:03.321Z,1.60
2023-06-01T06:49:30.276Z,1.50
2023-06-01T06:51:57.398Z,1.50
2023-06-01T06:54:24.351Z,1.50
2023-06-01T06:56:50.999Z,1.50
2023-06-01T06:59:18.294Z,1.40
2023-06-01T07:01:44.919Z,1.70
2023-06-01T07:04:11.893Z,1.30
2023-06-01T07:06:38.582Z,1.57
2023-06-01T07:09:07.008Z,1.20
2023-06-01T07:11:33.711Z,1.70
2023-06-01T07:14:01.019Z,0.80
2023-06-01T07:16:30.446Z,1.47
2023-06-01T07:18:57.954Z,1.33
2023-06-01T07:21:24.863Z,1.60
2023-06-01T07:23:51.638Z,1.53
2023-06-01T07:26:18.148Z,1.37
2023-06-01T07:28:45.170Z,1.90
2023-06-01T07:31:11.884Z,1.07
2023-06-01T07:33:38.863Z,1.30
2023-06-01T07:36:08.680Z,1.47
2023-06-01T07:38:35.293Z,1.70
2023-06-01T07:41:02.661Z,1.80
2023-06-01T07:43:29.388Z,1.50
2023-06-01T07:45:56.735Z,0.97
2023-06-01T07:48:23.650Z,1.27
2023-06-01T07:50:52.399Z,1.60
2023-06-01T07:53:19.890Z,1.77
2023-06-01T07:55:46.644Z,1.10
2023-06-01T07:58:13.478Z,1.03
2023-06-01T08:00:40.620Z,1.00
2023-06-01T08:03:07.601Z,1.27
2023-06-01T08:05:39.532Z,1.57
2023-06-01T08:08:06.362Z,1.47
2023-06-01T08:10:34.131Z,1.13
2023-06-01T08:13:00.923Z,1.50
2023-06-01T08:15:28.442Z,1.40
2023-06-01T08:17:58.325Z,1.90
2023-06-01T08:20:26.965Z,1.13
2023-06-01T08:22:54.612Z,1.47
2023-06-01T08:25:21.931Z,1.50
2023-06-01T08:27:50.255Z,2.07
2023-06-01T08:30:16.876Z,1.70
2023-06-01T08:32:43.476Z,1.43
2023-06-01T08:35:10.232Z,2.13
2023-06-01T08:37:37.641Z,1.37
2023-06-01T08:40:11.226Z,1.00
2023-06-01T08:42:48.502Z,1.90
2023-06-01T08:45:15.253Z,1.60
2023-06-01T08:47:43.090Z,1.40
2023-06-01T08:50:16.447Z,1.67
2023-06-01T08:52:45.725Z,2.15
2023-06-01T08:55:12.851Z,1.80
2023-06-01T08:57:43.323Z,0.90
2023-06-01T09:00:15.947Z,1.60
2023-06-01T09:02:44.045Z,1.13
2023-06-01T09:05:12.448Z,1.30
2023-06-01T09:07:41.122Z,1.30
2023-06-01T09:10:08.701Z,2.13
2023-06-01T09:12:35.855Z,1.87
2023-06-01T09:15:10.318Z,1.47
2023-06-01T09:17:37.982Z,1.37
2023-06-01T09:20:06.065Z,1.43
2023-06-01T09:22:46.573Z,1.47
2023-06-01T09:25:16.150Z,2.10
2023-06-01T09:27:46.649Z,1.63
2023-06-01T09:30:14.861Z,1.50
2023-06-01T09:32:42.981Z,2.40
2023-06-01T09:35:09.721Z,1.60
2023-06-01T09:37:39.086Z,1.77
2023-06-01T09:40:20.355Z,1.50
2023-06-01T09:42:50.979Z,1.83
2023-06-01T09:45:21.716Z,1.70
2023-06-01T09:47:52.690Z,1.73
2023-06-01T09:50:40.281Z,1.60
2023-06-01T09:53:07.629Z,2.40
2023-06-01T09:55:34.334Z,1.60
2023-06-01T09:58:21.936Z,1.37
2023-06-01T10:00:52.709Z,2.10
2023-06-01T10:03:21.653Z,1.40
2023-06-01T10:05:49.768Z,2.17
2023-06-01T10:08:18.342Z,1.70
2023-06-01T10:10:47.366Z,1.90
2023-06-01T10:13:14.760Z,2.23
2023-06-01T10:15:41.821Z,2.07
2023-06-01T10:18:09.359Z,1.97
2023-06-01T10:20:38.149Z,1.83
2023-06-01T10:23:07.422Z,1.53
2023-06-01T10:25:47.307Z,2.07
2023-06-01T10:28:15.166Z,1.70
2023-06-01T10:30:43.247Z,1.80
2023-06-01T10:33:10.098Z,2.30
2023-06-01T10:35:42.762Z,2.23
2023-06-01T10:38:15.508Z,2.37
2023-06-01T10:40:43.640Z,1.80
2023-06-01T10:43:39.056Z,1.80
2023-06-01T10:46:34.195Z,2.03
2023-06-01T10:49:00.901Z,2.00
2023-06-01T10:51:29.257Z,1.60
2023-06-01T10:54:18.156Z,1.67
2023-06-01T10:56:44.976Z,1.40
2023-06-01T10:59:18.973Z,1.60
2023-06-01T11:01:48.389Z,1.70
2023-06-01T11:04:16.530Z,1.80
2023-06-01T11:06:44.965Z,2.10
2023-06-01T11:09:13.152Z,2.10
2023-06-01T11:11:49.247Z,2.87
2023-06-01T11:14:17.374Z,1.87
2023-06-01T11:16:48.799Z,1.63
2023-06-01T11:19:22.030Z,2.00
2023-06-01T11:21:50.626Z,1.37
2023-06-01T11:24:18.907Z,1.90
2023-06-01T11:26:47.927Z,1.37
2023-06-01T11:29:23.224Z,1.50
2023-06-01T11:31:51.804Z,1.60
2023-06-01T11:34:20.110Z,1.53
2023-06-01T11:36:51.800Z,2.10
2023-06-01T11:39:23.864Z,1.70
2023-06-01T11:42:13.846Z,1.90
2023-06-01T11:44:42.423Z,1.60
2023-06-01T11:47:10.665Z,2.03
2023-06-01T11:49:50.642Z,2.23
2023-06-01T11:52:20.701Z,1.17
2023-06-01T11:54:48.960Z,1.80
2023-06-01T11:57:16.020Z,2.00
2023-06-01T11:59:47.702Z,1.27
2023-06-01T12:02:27.480Z,1.30
2023-06-01T12:04:59.839Z,1.87
2023-06-01T12:07:26.944Z,1.23
2023-06-01T12:09:59.173Z,2.40
2023-06-01T12:12:27.821Z,1.83
2023-06-01T12:14:56.458Z,1.60
2023-06-01T12:17:24.072Z,1.63
2023-06-01T12:19:51.472Z,2.20
2023-06-01T12:22:18.439Z,1.73
2023-06-01T12:24:45.925Z,1.93
2023-06-01T12:27:23.569Z,1.47
2023-06-01T12:29:52.959Z,1.60
2023-06-01T12:32:20.846Z,1.60
2023-06-01T12:35:04.731Z,2.40
2023-06-01T12:37:33.038Z,1.60
2023-06-01T12:40:02.642Z,1.33
2023-06-01T12:42:39.233Z,2.03
2023-06-01T12:45:11.421Z,1.97
2023-06-01T12:47:39.800Z,1.83
2023-06-01T12:50:08.439Z,2.03
2023-06-01T12:52:43.745Z,1.70
2023-06-01T12:55:11.407Z,1.63
2023-06-01T12:57:39.573Z,1.33
2023-06-01T13:00:08.032Z,1.70
2023-06-01T13:02:37.030Z,1.00
2023-06-01T13:05:06.080Z,1.87
2023-06-01T13:07:32.778Z,2.33
2023-06-01T13:09:59.998Z,1.90
2023-06-01T13:12:29.006Z,1.50
2023-06-01T13:14:56.991Z,1.47
2023-06-01T13:17:23.810Z,1.50
2023-06-01T13:19:50.697Z,1.60
2023-06-01T13:22:17.254Z,1.70
2023-06-01T13:27:13.810Z,1.77
2023-06-01T13:29:40.545Z,1.63
2023-06-01T13:32:07.471Z,1.73
2023-06-01T13:34:34.328Z,1.50
2023-06-01T13:37:02.145Z,1.37
2023-06-01T13:39:28.679Z,1.60
2023-06-01T13:41:55.445Z,1.50
2023-06-01T13:44:23.385Z,1.57
2023-06-01T13:46:50.841Z,1.50
2023-06-01T13:49:17.675Z,1.53
2023-06-01T13:51:44.674Z,1.70
2023-06-01T13:54:14.337Z,1.47
2023-06-01T13:56:43.025Z,1.80
2023-06-01T13:59:09.515Z,1.40
2023-06-01T14:01:36.543Z,1.60
2023-06-01T14:04:04.512Z,0.97
2023-06-01T14:06:31.928Z,1.80
2023-06-01T14:09:00.555Z,2.30
2023-06-01T14:11:29.890Z,1.17
2023-06-01T14:13:57.968Z,1.40
2023-06-01T14:16:24.495Z,1.30
2023-06-01T14:18:51.052Z,1.30
2023-06-01T14:21:17.963Z,1.30
2023-06-01T14:23:49.235Z,1.50
2023-06-01T14:26:15.808Z,1.50
2023-06-01T14:28:42.504Z,1.40
2023-06-01T14:31:09.112Z,1.30
2023-06-01T14:33:35.876Z,1.00
2023-06-01T14:36:02.698Z,1.50
2023-06-01T14:38:30.570Z,1.53
2023-06-01T14:40:57.362Z,0.93
2023-06-01T14:43:23.976Z,1.33
2023-06-01T14:45:50.574Z,0.67
2023-06-01T14:48:17.400Z,1.73
2023-06-01T14:50:44.051Z,1.57
2023-06-01T14:53:10.655Z,1.37
2023-06-01T14:55:37.119Z,1.03
2023-06-01T14:58:03.878Z,1.37
2023-06-01T15:00:30.726Z,1.10
2023-06-01T15:02:57.493Z,1.23
2023-06-01T15:05:24.483Z,1.43
2023-06-01T15:07:52.576Z,1.43
2023-06-01T15:10:19.276Z,1.27
2023-06-01T15:12:46.309Z,1.73
2023-06-01T15:15:16.266Z,1.30
2023-06-01T15:17:42.796Z,1.00
2023-06-01T15:20:09.765Z,1.30
2023-06-01T15:22:37.843Z,1.07
2023-06-01T15:25:05.179Z,0.90
2023-06-01T15:27:32.152Z,1.20
2023-06-01T15:29:58.751Z,1.10
2023-06-01T15:32:25.575Z,0.90
2023-06-01T15:34:52.268Z,0.87
2023-06-01T15:37:21.188Z,1.03
2023-06-01T15:39:48.104Z,0.90
2023-06-01T15:42:16.236Z,1.40
2023-06-01T15:44:44.825Z,1.10
2023-06-01T15:47:12.627Z,1.00
2023-06-01T15:49:42.416Z,1.20
2023-06-01T15:52:09.415Z,0.80
2023-06-01T15:54:37.316Z,0.90
2023-06-01T15:57:08.668Z,1.23
2023-06-01T15:59:35.811Z,0.80
2023-06-01T16:02:06.668Z,1.13
2023-06-01T16:04:33.497Z,1.27
2023-06-01T16:07:00.221Z,0.93
2023-06-01T16:09:28.238Z,0.80
2023-06-01T16:11:54.820Z,1.10
2023-06-01T16:14:21.622Z,0.73
2023-06-01T16:16:49.814Z,1.10
2023-06-01T16:19:16.603Z,0.43
2023-06-01T16:21:43.401Z,0.80
2023-06-01T16:24:09.924Z,1.10
2023-06-01T16:26:36.633Z,0.97
2023-06-01T16:29:03.321Z,1.10
2023-06-01T16:31:29.934Z,1.10
2023-06-01T16:33:58.804Z,0.90
2023-06-01T16:36:25.322Z,0.80
2023-06-01T16:38:51.965Z,1.03
2023-06-01T16:41:19.006Z,0.90
2023-06-01T16:43:48.572Z,1.20
2023-06-01T16:46:15.139Z,1.10
2023-06-01T16:48:42.801Z,1.00
2023-06-01T16:51:10.640Z,0.97
2023-06-01T16:53:37.323Z,0.80
2023-06-01T16:56:04.334Z,0.80
2023-06-01T16:58:31.232Z,0.93
2023-06-01T17:01:02.274Z,0.73
2023-06-01T17:03:31.715Z,0.80
2023-06-01T17:05:58.504Z,0.73
2023-06-01T17:08:26.368Z,0.93
2023-06-01T17:10:52.875Z,0.90
2023-06-01T17:13:19.418Z,0.90
2023-06-01T17:15:46.155Z,1.20
2023-06-01T17:18:14.232Z,0.93
2023-06-01T17:20:43.927Z,0.80
2023-06-01T17:23:10.762Z,0.83
2023-06-01T17:25:37.266Z,0.90
2023-06-01T17:28:04.298Z,0.90
2023-06-01T17:30:31.574Z,1.03
2023-06-01T17:32:58.786Z,0.83
2023-06-01T17:35:25.905Z,1.20
2023-06-01T17:37:52.823Z,1.40
2023-06-01T17:40:19.420Z,1.17
2023-06-01T17:42:46.427Z,0.73
2023-06-01T17:45:14.598Z,1.00
2023-06-01T17:47:41.415Z,0.93
2023-06-01T17:50:08.426Z,1.20
2023-06-01T17:52:35.493Z,0.70
2023-06-01T17:55:02.033Z,0.80
2023-06-01T17:57:28.571Z,0.60
2023-06-01T17:59:55.110Z,0.90
2023-06-01T18:02:21.677Z,1.10
2023-06-01T18:04:50.180Z,1.03
2023-06-01T18:07:18.054Z,0.73
2023-06-01T18:09:49.631Z,0.90
2023-06-01T18:12:16.488Z,0.83
2023-06-01T18:14:43.126Z,0.80
2023-06-01T18:17:09.598Z,0.67
2023-06-01T18:19:36.393Z,1.27
2023-06-01T18:22:05.613Z,1.20
2023-06-01T18:24:32.318Z,0.90
2023-06-01T18:27:01.389Z,0.90
2023-06-01T18:29:28.249Z,1.00
2023-06-01T18:31:55.135Z,1.40
2023-06-01T18:34:22.138Z,0.83
2023-06-01T18:36:49.194Z,0.67
2023-06-01T18:39:16.200Z,1.00
2023-06-01T18:41:42.851Z,1.10
2023-06-01T18:44:09.902Z,1.20
2023-06-01T18:46:38.576Z,0.90
2023-06-01T18:49:06.038Z,1.40
2023-06-01T18:51:33.024Z,1.40
2023-06-01T18:54:01.565Z,0.80
2023-06-01T18:56:29.556Z,0.83
2023-06-01T18:58:57.717Z,1.17
2023-06-01T19:01:26.404Z,0.90
2023-06-01T19:03:54.081Z,1.03
2023-06-01T19:06:21.628Z,1.13
2023-06-01T19:08:48.427Z,1.53
2023-06-01T19:11:15.104Z,1.30
2023-06-01T19:13:52.817Z,1.00
2023-06-01T19:16:29.962Z,1.10
2023-06-01T19:18:58.889Z,1.10
2023-06-01T19:21:30.777Z,1.47
2023-06-01T19:23:58.789Z,1.30
2023-06-01T19:26:38.595Z,1.70
2023-06-01T19:29:09.427Z,1.50
2023-06-01T19:31:38.441Z,1.37
2023-06-01T19:34:07.212Z,1.23
2023-06-01T19:36:43.435Z,1.67
2023-06-01T19:39:16.302Z,1.50
2023-06-01T19:41:44.336Z,1.20
2023-06-01T19:44:17.274Z,1.33
2023-06-01T19:46:43.853Z,1.80
2023-06-01T19:49:15.590Z,1.87
2023-06-01T19:51:43.423Z,1.47
2023-06-01T19:54:19.333Z,1.87
2023-06-01T19:56:48.280Z,1.30
2023-06-01T19:59:23.784Z,1.20
2023-06-01T20:01:50.945Z,1.13
2023-06-01T20:04:18.012Z,1.23
2023-06-01T20:06:47.171Z,1.37
2023-06-01T20:09:18.868Z,1.17
2023-06-01T20:11:51.476Z,1.30
2023-06-01T20:14:35.228Z,1.60
2023-06-01T20:17:07.724Z,1.60
2023-06-01T20:19:34.687Z,1.50
2023-06-01T20:22:02.180Z,1.00
2023-06-01T20:24:30.915Z,1.40
2023-06-01T20:27:00.785Z,1.43
2023-06-01T20:29:29.527Z,1.10
2023-06-01T20:31:57.831Z,1.40
2023-06-01T20:34:25.835Z,1.13
2023-06-01T20:36:52.803Z,0.90
2023-06-01T20:39:21.165Z,1.03
2023-06-01T20:41:48.600Z,1.40
2023-06-01T20:44:17.782Z,1.30
2023-06-01T20:46:45.137Z,1.23
2023-06-01T20:49:11.891Z,1.00
2023-06-01T20:51:45.540Z,1.37
2023-06-01T20:54:15.109Z,1.10
2023-06-01T20:56:57.366Z,1.30
2023-06-01T20:59:32.799Z,1.60
2023-06-01T21:02:01.693Z,1.30
2023-06-01T21:04:36.018Z,1.17
2023-06-01T21:07:04.849Z,1.57
2023-06-01T21:09:32.635Z,1.13
2023-06-01T21:11:59.656Z,1.10
2023-06-01T21:14:26.456Z,1.33
2023-06-01T21:16:53.291Z,1.33
2023-06-01T21:19:21.889Z,1.30
2023-06-01T21:21:48.720Z,1.23
2023-06-01T21:24:17.859Z,1.17
2023-06-01T21:26:45.763Z,1.13
2023-06-01T21:29:13.268Z,1.10
2023-06-01T21:31:39.969Z,1.40
2023-06-01T21:34:06.844Z,1.50
2023-06-01T21:36:33.488Z,1.13
2023-06-01T21:39:00.488Z,1.37
2023-06-01T21:41:29.570Z,1.37
2023-06-01T21:43:56.435Z,1.40
2023-06-01T21:46:23.213Z,1.30
2023-06-01T21:48:49.975Z,1.10
2023-06-01T21:51:16.883Z,1.40
2023-06-01T21:53:44.760Z,1.47
2023-06-01T21:56:11.705Z,1.50
2023-06-01T21:58:39.223Z,1.37
2023-06-01T22:01:07.031Z,1.30
2023-06-01T22:03:34.953Z,1.50
2023-06-01T22:06:02.263Z,1.30
2023-06-01T22:08:29.220Z,1.50
2023-06-01T22:10:57.231Z,1.50
2023-06-01T22:13:24.119Z,1.00
2023-06-01T22:15:50.747Z,1.87
2023-06-01T22:18:17.385Z,1.30
2023-06-01T22:20:44.028Z,1.60
2023-06-01T22:23:10.948Z,1.37
2023-06-01T22:25:38.719Z,1.20
2023-06-01T22:28:06.453Z,1.90
2023-06-01T22:30:34.762Z,1.30
2023-06-01T22:33:02.875Z,1.37
2023-06-01T22:35:29.573Z,1.00
2023-06-01T22:37:56.560Z,1.23
2023-06-01T22:40:23.487Z,1.30
2023-06-01T22:42:53.778Z,1.40
2023-06-01T22:45:21.711Z,1.40
2023-06-01T22:47:49.153Z,1.40
2023-06-01T22:50:19.940Z,1.63
2023-06-01T22:52:47.503Z,1.33
2023-06-01T22:55:14.426Z,1.20
2023-06-01T22:57:41.199Z,1.73
2023-06-01T23:00:08.770Z,1.73
2023-06-01T23:02:35.706Z,1.50
2023-06-01T23:05:04.816Z,1.13
2023-06-01T23:07:33.433Z,1.27
2023-06-01T23:10:01.510Z,1.47
2023-06-01T23:12:31.141Z,1.63
2023-06-01T23:14:57.801Z,1.73
2023-06-01T23:17:27.749Z,1.53
2023-06-01T23:19:54.725Z,1.33
2023-06-01T23:22:21.764Z,1.07
2023-06-01T23:24:48.330Z,1.60
2023-06-01T23:27:15.394Z,1.40
2023-06-01T23:29:43.256Z,1.50
2023-06-01T23:32:10.767Z,1.40
2023-06-01T23:34:39.402Z,1.67
2023-06-01T23:37:06.916Z,1.30
2023-06-01T23:39:33.762Z,1.70
2023-06-01T23:42:00.551Z,2.00
2023-06-01T23:44:29.711Z,1.53
2023-06-01T23:46:56.337Z,1.30
2023-06-01T23:49:23.289Z,2.00
2023-06-01T23:51:51.638Z,2.07
2023-06-01T23:54:18.419Z,1.43
2023-06-01T23:56:45.277Z,1.60
2023-06-01T23:59:11.966Z,1.33
